createdAt,value
2022-08-07T00:00:26.009Z,99435.91
2022-08-07T00:02:53.873Z,99291.38
2022-08-07T00:05:23.676Z,99386.50
2022-08-07T00:07:59.948Z,99467.53
2022-08-07T00:10:31.415Z,99401.50
2022-08-07T00:13:02.481Z,99528.69
2022-08-07T00:15:46.759Z,99391.13
2022-08-07T00:18:25.606Z,99369.88
2022-08-07T00:21:01.397Z,99428.03
2022-08-07T00:23:31.709Z,99232.00
2022-08-07T00:26:18.544Z,99438.13
2022-08-07T00:28:55.453Z,99492.88
2022-08-07T00:31:26.080Z,99395.91
2022-08-07T00:34:08.942Z,99442.16
2022-08-07T00:36:42.731Z,99456.38
2022-08-07T00:39:16.969Z,99471.50
2022-08-07T00:42:05.036Z,99395.69
2022-08-07T00:44:34.843Z,99329.41
2022-08-07T00:47:03.855Z,99368.03
2022-08-07T00:50:19.916Z,99376.16
2022-08-07T00:52:21.801Z,99308.59
2022-08-07T00:54:53.752Z,99320.69
2022-08-07T00:57:26.355Z,99424.63
2022-08-07T00:59:54.464Z,99406.41
2022-08-07T01:02:29.319Z,99518.53
2022-08-07T01:04:59.172Z,99368.06
2022-08-07T01:07:29.519Z,99372.06
2022-08-07T01:10:05.349Z,99339.59
2022-08-07T01:12:36.688Z,99507.06
2022-08-07T01:15:11.902Z,99362.88
2022-08-07T01:17:44.590Z,99426.09
2022-08-07T01:20:16.593Z,99473.56
2022-08-07T01:22:46.726Z,99339.88
2022-08-07T01:25:54.667Z,99348.56
2022-08-07T01:28:17.319Z,99291.16
2022-08-07T01:30:47.333Z,99378.78
2022-08-07T01:33:19.203Z,99383.03
2022-08-07T01:35:53.473Z,99421.25
2022-08-07T01:38:25.785Z,99444.00
2022-08-07T01:41:04.513Z,99480.44
2022-08-07T01:43:38.344Z,99435.78
2022-08-07T01:46:08.068Z,99346.31
2022-08-07T01:48:46.647Z,99365.13
2022-08-07T01:51:58.504Z,99204.28
2022-08-07T01:54:33.299Z,99300.19
2022-08-07T01:57:24.818Z,99390.34
2022-08-07T02:00:13.716Z,99276.19
2022-08-07T02:03:11.942Z,99535.97
2022-08-07T02:05:59.358Z,99267.59
2022-08-07T02:08:29.974Z,99301.44
2022-08-07T02:11:00.638Z,99448.41
2022-08-07T02:13:56.444Z,99384.94
2022-08-07T02:16:28.799Z,99307.03
2022-08-07T02:20:07.489Z,99360.94
2022-08-07T02:21:58.904Z,99543.56
2022-08-07T02:24:30.067Z,99508.97
2022-08-07T02:27:01.354Z,99339.50
2022-08-07T02:29:31.675Z,99360.88
2022-08-07T02:32:01.772Z,99323.06
2022-08-07T02:34:32.567Z,99436.28
2022-08-07T02:37:08.196Z,99408.16
2022-08-07T02:39:42.397Z,99296.94
2022-08-07T02:42:16.414Z,99493.00
2022-08-07T02:44:50.178Z,99344.41
2022-08-07T02:47:23.333Z,99477.50
2022-08-07T02:50:00.177Z,99385.44
2022-08-07T02:52:44.253Z,99460.72
2022-08-07T02:56:02.157Z,99288.31
2022-08-07T02:58:22.398Z,99506.47
2022-08-07T03:00:58.048Z,99479.94
2022-08-07T03:03:49.263Z,99481.78
2022-08-07T03:06:32.092Z,99380.88
2022-08-07T03:09:03.619Z,99368.91
2022-08-07T03:11:38.581Z,99298.19
2022-08-07T03:14:07.768Z,99548.06
2022-08-07T03:16:35.870Z,99344.28
2022-08-07T03:19:07.812Z,99338.09
2022-08-07T03:21:36.004Z,99285.81
2022-08-07T03:24:20.157Z,99439.50
2022-08-07T03:26:59.132Z,99270.91
2022-08-07T03:29:46.055Z,99380.97
2022-08-07T03:32:58.219Z,99528.31
2022-08-07T03:35:43.691Z,99351.69
2022-08-07T03:38:21.174Z,99455.38
2022-08-07T03:40:53.927Z,99491.44
2022-08-07T03:43:32.229Z,99326.25
2022-08-07T03:46:10.557Z,99355.63
2022-08-07T03:49:02.441Z,99489.47
2022-08-07T03:51:47.409Z,99299.34
2022-08-07T03:54:36.120Z,99249.94
2022-08-07T03:57:08.313Z,99383.34
2022-08-07T03:59:46.637Z,99518.81
2022-08-07T04:02:27.224Z,99314.78
2022-08-07T04:04:54.726Z,99393.63
2022-08-07T04:07:25.205Z,99351.63
2022-08-07T04:10:05.305Z,99271.69
2022-08-07T04:12:35.278Z,99247.16
2022-08-07T04:15:04.886Z,99350.88
2022-08-07T04:18:31.204Z,99285.16
2022-08-07T04:20:25.383Z,99422.16
2022-08-07T04:23:01.600Z,99383.72
2022-08-07T04:25:39.403Z,99493.06
2022-08-07T04:28:13.305Z,99352.44
2022-08-07T04:30:55.350Z,99540.59
2022-08-07T04:33:32.031Z,99411.88
2022-08-07T04:36:06.542Z,99455.41
2022-08-07T04:38:37.292Z,99453.84
2022-08-07T04:41:04.890Z,99544.56
2022-08-07T04:44:12.138Z,99620.28
2022-08-07T04:47:08.716Z,99423.72
2022-08-07T04:50:22.264Z,99537.78
2022-08-07T04:54:00.959Z,99484.28
2022-08-07T04:58:13.257Z,99675.81
2022-08-07T05:00:10.983Z,99735.97
2022-08-07T05:02:59.247Z,99562.25
2022-08-07T05:05:53.512Z,99611.00
2022-08-07T05:09:08.131Z,99699.72
2022-08-07T05:11:57.171Z,99525.03
2022-08-07T05:14:53.824Z,99633.06
2022-08-07T05:17:53.054Z,99631.53
2022-08-07T05:20:23.858Z,99508.59
2022-08-07T05:22:56.641Z,99551.31
2022-08-07T05:25:26.296Z,99616.03
2022-08-07T05:28:21.362Z,99534.16
2022-08-07T05:30:57.043Z,99420.81
2022-08-07T05:33:30.400Z,99462.81
2022-08-07T05:35:59.178Z,99450.13
2022-08-07T05:39:01.294Z,99357.41
2022-08-07T05:41:18.452Z,99399.88
2022-08-07T05:44:08.521Z,99370.56
2022-08-07T05:46:44.276Z,99352.09
2022-08-07T05:49:13.066Z,99332.66
2022-08-07T05:51:46.150Z,99310.09
2022-08-07T05:54:30.261Z,99319.03
2022-08-07T05:57:03.485Z,99504.53
2022-08-07T05:59:46.534Z,99456.59
2022-08-07T06:02:30.560Z,99527.28
2022-08-07T06:05:15.440Z,99384.16
2022-08-07T06:08:12.902Z,99486.34
2022-08-07T06:10:38.850Z,99368.16
2022-08-07T06:13:13.583Z,99534.59
2022-08-07T06:15:43.563Z,99606.00
2022-08-07T06:18:21.594Z,99391.53
2022-08-07T06:22:16.781Z,99383.56
2022-08-07T06:23:45.858Z,99550.53
2022-08-07T06:26:27.933Z,99567.34
2022-08-07T06:29:01.538Z,99336.31
2022-08-07T06:31:49.373Z,99462.50
2022-08-07T06:34:20.717Z,99443.44
2022-08-07T06:36:51.824Z,99435.72
2022-08-07T06:40:17.714Z,99530.00
2022-08-07T06:42:35.096Z,99542.31
2022-08-07T06:45:18.286Z,99299.06
2022-08-07T06:47:57.311Z,99464.16
2022-08-07T06:50:33.409Z,99491.47
2022-08-07T06:53:07.200Z,99442.59
2022-08-07T06:56:01.194Z,99440.75
2022-08-07T06:58:32.122Z,99462.47
2022-08-07T07:01:09.292Z,99428.72
2022-08-07T07:03:48.615Z,99574.41
2022-08-07T07:06:24.024Z,99457.84
2022-08-07T07:08:55.120Z,99334.41
2022-08-07T07:12:08.835Z,99491.59
2022-08-07T07:14:14.104Z,99421.09
2022-08-07T07:16:50.074Z,99452.69
2022-08-07T07:19:57.589Z,99416.47
2022-08-07T07:22:35.808Z,99476.84
2022-08-07T07:26:31.225Z,99478.59
2022-08-07T07:28:42.036Z,99478.03
2022-08-07T07:31:10.929Z,99531.22
2022-08-07T07:33:39.369Z,99518.09
2022-08-07T07:36:12.856Z,99432.03
2022-08-07T07:38:43.477Z,99441.50
2022-08-07T07:41:19.627Z,99390.13
2022-08-07T07:44:17.558Z,99426.00
2022-08-07T07:46:55.187Z,99508.66
2022-08-07T07:50:34.693Z,99393.28
2022-08-07T07:52:17.236Z,99506.16
2022-08-07T07:54:50.575Z,99469.81
2022-08-07T07:57:44.059Z,99479.75
2022-08-07T08:00:11.491Z,99463.72
2022-08-07T08:03:01.314Z,99475.44
2022-08-07T08:05:32.250Z,99367.03
2022-08-07T08:08:35.669Z,99398.00
2022-08-07T08:11:01.590Z,99482.63
2022-08-07T08:13:33.257Z,99455.09
2022-08-07T08:16:19.728Z,99360.94
2022-08-07T08:18:55.822Z,99521.88
2022-08-07T08:21:55.455Z,99459.91
2022-08-07T08:25:04.770Z,99476.47
2022-08-07T08:27:56.226Z,99392.81
2022-08-07T08:30:32.023Z,99468.38
2022-08-07T08:33:02.994Z,99379.47
2022-08-07T08:35:39.434Z,99390.94
2022-08-07T08:38:16.853Z,99466.03
2022-08-07T08:41:02.975Z,99430.13
2022-08-07T08:43:50.533Z,99429.16
2022-08-07T08:46:39.591Z,99383.00
2022-08-07T08:50:06.044Z,99418.34
2022-08-07T08:52:51.732Z,99423.00
2022-08-07T08:56:01.614Z,99370.28
2022-08-07T08:59:02.347Z,99469.03
2022-08-07T09:02:09.019Z,99501.28
2022-08-07T09:04:59.356Z,99476.66
2022-08-07T09:08:17.802Z,99492.94
2022-08-07T09:11:43.408Z,99405.88
2022-08-07T09:14:37.190Z,99503.00
2022-08-07T09:18:01.325Z,99468.06
2022-08-07T09:21:01.005Z,99359.31
2022-08-07T09:24:32.504Z,99452.72
2022-08-07T09:27:19.997Z,99397.25
2022-08-07T09:30:03.549Z,99422.31
2022-08-07T09:33:41.016Z,99424.59
2022-08-07T09:36:35.448Z,99347.03
2022-08-07T09:39:52.671Z,99442.44
2022-08-07T09:42:23.037Z,99411.91
2022-08-07T09:46:29.077Z,99437.47
2022-08-07T09:48:30.115Z,99408.19
2022-08-07T09:52:15.231Z,99346.25
2022-08-07T09:54:55.882Z,99432.75
2022-08-07T09:57:54.655Z,99319.91
2022-08-07T10:00:32.755Z,99350.31
2022-08-07T10:04:05.602Z,99369.72
2022-08-07T10:07:24.612Z,99355.19
2022-08-07T10:10:20.949Z,99380.19
2022-08-07T10:14:00.862Z,99307.72
2022-08-07T10:16:45.082Z,99319.25
2022-08-07T10:20:00.627Z,99379.47
2022-08-07T10:23:07.736Z,99349.16
2022-08-07T10:26:17.755Z,99431.50
2022-08-07T10:29:24.426Z,99407.22
2022-08-07T10:32:16.548Z,99339.00
2022-08-07T10:35:27.284Z,99358.31
2022-08-07T10:38:35.889Z,99366.13
2022-08-07T10:41:46.445Z,99338.16
2022-08-07T10:44:39.639Z,99352.66
2022-08-07T10:47:52.573Z,99353.84
2022-08-07T10:50:28.112Z,99330.78
2022-08-07T10:53:41.732Z,99298.03
2022-08-07T10:56:30.969Z,99400.22
2022-08-07T10:59:32.018Z,99363.41
2022-08-07T11:02:33.445Z,99361.41
2022-08-07T11:05:48.811Z,99367.69
2022-08-07T11:08:38.914Z,99420.00
2022-08-07T11:11:14.174Z,99462.34
2022-08-07T11:14:45.969Z,99280.16
2022-08-07T11:17:01.386Z,99343.47
2022-08-07T11:20:18.712Z,99349.63
2022-08-07T11:23:30.750Z,99388.06
2022-08-07T11:26:25.429Z,99347.59
2022-08-07T11:28:56.978Z,99280.53
2022-08-07T11:31:49.046Z,99380.69
2022-08-07T11:34:46.037Z,99371.69
2022-08-07T11:37:57.524Z,99250.59
2022-08-07T11:41:00.294Z,99375.94
2022-08-07T11:44:14.358Z,99353.59
2022-08-07T11:47:38.656Z,99363.47
2022-08-07T11:50:57.837Z,99280.72
2022-08-07T11:54:00.865Z,99365.09
2022-08-07T11:57:03.020Z,99419.88
2022-08-07T12:00:11.995Z,99361.94
2022-08-07T12:02:58.282Z,99288.97
2022-08-07T12:06:36.254Z,99319.94
2022-08-07T12:09:16.366Z,99324.31
2022-08-07T12:12:09.502Z,99237.53
2022-08-07T12:15:00.183Z,99323.28
2022-08-07T12:18:22.377Z,99294.91
2022-08-07T12:21:55.648Z,99350.44
2022-08-07T12:24:37.834Z,99348.94
2022-08-07T12:27:18.630Z,99294.81
2022-08-07T12:30:06.430Z,99239.91
2022-08-07T12:32:50.370Z,99316.69
2022-08-07T12:35:19.528Z,99289.66
2022-08-07T12:38:09.312Z,99347.63
2022-08-07T12:40:47.455Z,99224.88
2022-08-07T12:44:02.677Z,99287.44
2022-08-07T12:46:56.701Z,99292.63
2022-08-07T12:49:51.974Z,99290.88
2022-08-07T12:52:41.616Z,99304.72
2022-08-07T12:56:03.128Z,99302.69
2022-08-07T12:58:37.456Z,99257.72
2022-08-07T13:01:08.886Z,99335.66
2022-08-07T13:04:31.573Z,99303.66
2022-08-07T13:08:14.298Z,99343.00
2022-08-07T13:10:51.601Z,99236.66
2022-08-07T13:13:57.445Z,99317.66
2022-08-07T13:16:29.561Z,99276.59
2022-08-07T13:19:50.740Z,99193.75
2022-08-07T13:22:37.854Z,99311.94
2022-08-07T13:25:24.258Z,99243.69
2022-08-07T13:28:13.610Z,99208.78
2022-08-07T13:30:53.223Z,99281.97
2022-08-07T13:34:34.443Z,99232.13
2022-08-07T13:36:57.793Z,99249.34
2022-08-07T13:40:36.127Z,99259.38
2022-08-07T13:42:57.328Z,99282.22
2022-08-07T13:46:11.578Z,99247.25
2022-08-07T13:48:20.835Z,99247.03
2022-08-07T13:51:02.023Z,99272.53
2022-08-07T13:54:01.559Z,99281.97
2022-08-07T13:56:35.776Z,99242.66
2022-08-07T13:59:27.060Z,99318.69
2022-08-07T14:02:12.863Z,99249.81
2022-08-07T14:05:01.564Z,99209.25
2022-08-07T14:07:38.281Z,99168.38
2022-08-07T14:10:28.151Z,99208.47
2022-08-07T14:13:03.757Z,99235.63
2022-08-07T14:15:43.574Z,99230.66
2022-08-07T14:18:28.893Z,99205.63
2022-08-07T14:22:02.406Z,99224.53
2022-08-07T14:24:37.138Z,99281.94
2022-08-07T14:28:09.773Z,99264.63
2022-08-07T14:30:11.258Z,99264.09
2022-08-07T14:32:45.689Z,99241.06
2022-08-07T14:35:42.779Z,99190.94
2022-08-07T14:38:26.552Z,99163.50
2022-08-07T14:41:06.321Z,99228.13
2022-08-07T14:43:58.833Z,99193.50
2022-08-07T14:46:33.395Z,99209.25
2022-08-07T14:49:17.400Z,99225.28
2022-08-07T14:52:03.759Z,99144.06
2022-08-07T14:54:42.131Z,99236.94
2022-08-07T14:57:19.773Z,99139.72
2022-08-07T15:00:07.010Z,99171.25
2022-08-07T15:02:37.175Z,99150.81
2022-08-07T15:05:20.417Z,99225.59
2022-08-07T15:07:52.800Z,99232.78
2022-08-07T15:10:30.123Z,99171.22
2022-08-07T15:13:11.888Z,99139.59
2022-08-07T15:15:52.251Z,99161.31
2022-08-07T15:18:43.750Z,99182.63
2022-08-07T15:21:44.151Z,99179.78
2022-08-07T15:25:13.906Z,99216.22
2022-08-07T15:27:12.178Z,99180.22
2022-08-07T15:30:08.801Z,99149.00
2022-08-07T15:33:01.299Z,99152.13
2022-08-07T15:36:00.663Z,99133.84
2022-08-07T15:38:30.889Z,99112.84
2022-08-07T15:47:16.900Z,99212.69
2022-08-07T15:50:05.903Z,99128.97
2022-08-07T15:52:38.239Z,99186.78
2022-08-07T15:55:12.273Z,99111.28
2022-08-07T15:57:48.904Z,99151.09
2022-08-07T16:00:31.599Z,99139.19
2022-08-07T16:03:20.899Z,99102.47
2022-08-07T16:05:52.759Z,99112.59
2022-08-07T16:08:31.236Z,99109.69
2022-08-07T16:11:26.750Z,99097.53
2022-08-07T16:14:20.457Z,99068.09
2022-08-07T16:17:16.289Z,99059.50
2022-08-07T16:20:55.173Z,99088.38
2022-08-07T16:24:01.096Z,99088.25
2022-08-07T16:27:19.395Z,99107.31
2022-08-07T16:30:31.199Z,99128.03
2022-08-07T16:34:01.771Z,99077.72
2022-08-07T16:37:01.822Z,99177.81
2022-08-07T16:39:58.100Z,99056.81
2022-08-07T16:42:59.226Z,99157.56
2022-08-07T16:46:41.004Z,99113.38
2022-08-07T16:50:28.730Z,99122.06
2022-08-07T16:52:52.289Z,99135.47
2022-08-07T16:55:47.052Z,99156.78
2022-08-07T16:58:54.405Z,99089.94
2022-08-07T17:01:48.463Z,99164.69
2022-08-07T17:06:02.185Z,99099.31
2022-08-07T17:08:02.021Z,99139.47
2022-08-07T17:10:54.499Z,99159.75
2022-08-07T17:13:41.465Z,99033.66
2022-08-07T17:16:27.170Z,99089.91
2022-08-07T17:19:04.613Z,99042.91
2022-08-07T17:21:51.621Z,99115.31
2022-08-07T17:24:40.223Z,99169.91
2022-08-07T17:27:32.548Z,99094.28
2022-08-07T17:30:18.132Z,99063.78
2022-08-07T17:34:10.023Z,99072.03
2022-08-07T17:36:32.617Z,99084.13
2022-08-07T17:40:07.828Z,99134.59
2022-08-07T17:43:00.937Z,99071.63
2022-08-07T17:45:37.670Z,99043.44
2022-08-07T17:48:31.112Z,99124.38
2022-08-07T17:51:07.280Z,99071.84
2022-08-07T17:54:06.428Z,99118.72
2022-08-07T17:56:52.504Z,99091.28
2022-08-07T17:59:54.903Z,99022.72
2022-08-07T18:02:57.096Z,99099.28
2022-08-07T18:06:02.293Z,99138.53
2022-08-07T18:09:01.039Z,99090.94
2022-08-07T18:12:19.536Z,99085.84
2022-08-07T18:15:12.320Z,99022.75
2022-08-07T18:18:33.184Z,99103.47
2022-08-07T18:21:37.337Z,99108.91
2022-08-07T18:24:51.596Z,99083.00
2022-08-07T18:28:00.153Z,99085.38
2022-08-07T18:30:44.568Z,99120.34
2022-08-07T18:33:17.302Z,99069.97
2022-08-07T18:36:32.875Z,99115.66
2022-08-07T18:40:07.484Z,99094.53
2022-08-07T18:43:01.084Z,99152.56
2022-08-07T18:46:24.535Z,99083.81
2022-08-07T18:50:19.571Z,99067.28
2022-08-07T18:52:35.344Z,99174.41
2022-08-07T18:54:42.341Z,99062.31
2022-08-07T18:57:58.694Z,99148.03
2022-08-07T19:01:06.953Z,99103.78
2022-08-07T19:04:00.446Z,99169.75
2022-08-07T19:06:57.736Z,99092.03
2022-08-07T19:10:18.530Z,99079.19
2022-08-07T19:13:21.792Z,99127.44
2022-08-07T19:17:01.382Z,99105.72
2022-08-07T19:20:02.145Z,99141.22
2022-08-07T19:23:03.154Z,99069.66
2022-08-07T19:26:25.326Z,99133.63
2022-08-07T19:30:54.480Z,99182.06
2022-08-07T19:32:18.511Z,99068.75
2022-08-07T19:34:59.325Z,99149.41
2022-08-07T19:37:56.607Z,99090.13
2022-08-07T19:40:30.395Z,99158.88
2022-08-07T19:42:59.674Z,99100.06
2022-08-07T19:45:31.173Z,99192.66
2022-08-07T19:48:43.931Z,99126.78
2022-08-07T19:51:20.112Z,99164.22
2022-08-07T19:54:31.148Z,99110.00
2022-08-07T19:57:50.952Z,99059.84
2022-08-07T19:59:41.979Z,99099.19
2022-08-07T20:02:19.753Z,99062.22
2022-08-07T20:04:50.308Z,99050.25
2022-08-07T20:07:45.921Z,99098.19
2022-08-07T20:10:37.000Z,99103.97
2022-08-07T20:13:23.141Z,99052.63
2022-08-07T20:15:58.329Z,99018.31
2022-08-07T20:18:32.226Z,99121.91
2022-08-07T20:21:21.455Z,99159.78
2022-08-07T20:24:00.996Z,99183.47
2022-08-07T20:26:32.736Z,99106.69
2022-08-07T20:29:16.990Z,99129.31
2022-08-07T20:32:04.280Z,99173.75
2022-08-07T20:34:50.056Z,99137.78
2022-08-07T20:37:29.889Z,99226.94
2022-08-07T20:40:09.221Z,99163.03
2022-08-07T20:42:56.703Z,99166.66
2022-08-07T20:46:24.494Z,99160.28
2022-08-07T20:48:28.987Z,99183.81
2022-08-07T20:51:01.740Z,99198.78
2022-08-07T20:54:02.908Z,99217.00
2022-08-07T20:56:27.228Z,99149.47
2022-08-07T20:59:01.386Z,99285.75
2022-08-07T21:01:46.024Z,99209.78
2022-08-07T21:04:23.637Z,99171.13
2022-08-07T21:06:56.866Z,99183.66
2022-08-07T21:09:35.361Z,99278.94
2022-08-07T21:12:28.429Z,99255.09
2022-08-07T21:15:03.230Z,99323.53
2022-08-07T21:18:20.848Z,99159.56
2022-08-07T21:20:29.831Z,99286.47
2022-08-07T21:23:08.516Z,99131.38
2022-08-07T21:26:31.185Z,99248.09
2022-08-07T21:29:30.323Z,99156.91
2022-08-07T21:32:48.892Z,99274.44
2022-08-07T21:35:34.766Z,99201.06
2022-08-07T21:38:31.329Z,99344.66
2022-08-07T21:41:59.773Z,99367.81
2022-08-07T21:44:41.178Z,99338.88
2022-08-07T21:47:26.101Z,99354.09
2022-08-07T21:50:22.562Z,99279.03
2022-08-07T21:53:17.063Z,99185.94
2022-08-07T21:56:36.604Z,99372.56
2022-08-07T21:59:01.316Z,99300.13
2022-08-07T22:02:10.450Z,99397.00
2022-08-07T22:04:51.184Z,99224.41
2022-08-07T22:07:58.189Z,99395.53
2022-08-07T22:10:24.855Z,99211.97
2022-08-07T22:12:59.791Z,99241.69
2022-08-07T22:16:42.023Z,99287.91
2022-08-07T22:19:23.528Z,99414.72
2022-08-07T22:22:27.875Z,99232.25
2022-08-07T22:25:08.424Z,99324.75
2022-08-07T22:28:19.842Z,99388.53
2022-08-07T22:30:36.750Z,99204.38
2022-08-07T22:33:09.623Z,99232.59
2022-08-07T22:36:01.112Z,99419.25
2022-08-07T22:38:47.913Z,99200.09
2022-08-07T22:41:29.115Z,99284.81
2022-08-07T22:44:21.770Z,99220.09
2022-08-07T22:47:24.680Z,99424.34
2022-08-07T22:50:49.063Z,99306.88
2022-08-07T22:54:05.695Z,99243.44
2022-08-07T22:57:05.457Z,99431.16
2022-08-07T23:00:32.900Z,99224.91
2022-08-07T23:03:58.989Z,99359.47
2022-08-07T23:06:50.633Z,99300.94
2022-08-07T23:10:36.515Z,99434.13
2022-08-07T23:13:29.599Z,99408.63
2022-08-07T23:16:48.566Z,99274.31
2022-08-07T23:20:21.302Z,99302.69
2022-08-07T23:24:04.218Z,99306.56
2022-08-07T23:26:55.012Z,99450.97
2022-08-07T23:30:38.789Z,99249.94
2022-08-07T23:34:20.917Z,99442.16
2022-08-07T23:36:29.824Z,99204.56
2022-08-07T23:39:56.708Z,99329.41
2022-08-07T23:42:57.768Z,99288.94
2022-08-07T23:46:03.252Z,99428.19
2022-08-07T23:49:15.215Z,99280.38
2022-08-07T23:53:05.491Z,99323.03
2022-08-07T23:55:51.809Z,99312.84
2022-08-07T23:58:26.703Z,99323.72
